Time;durP1;ratioP1;P1;durP2;ratioP2;P2;SDS_P1;SDS_P2;PMS_P1;PMS_P2;Temp;Humidity;BMP_temperature;BMP_pressure;BME280_temperature;BME280_humidity;BME280_pressure;Samples;Min_cycle;Max_cycle;Signal;HPM_P1;HPM_P2
2022/04/20 00:00:52;;;;;;;4.57;3.47;;;8.30;99.90;;;;;;5026407;28;20041;-82
2022/04/20 00:03:17;;;;;;;4.50;3.35;;;8.20;99.90;;;;;;5022951;28;20038;-82
2022/04/20 00:05:43;;;;;;;5.85;3.22;;;8.20;99.90;;;;;;5016762;28;20542;-82
2022/04/20 00:08:08;;;;;;;5.40;3.63;;;8.20;99.90;;;;;;5040995;28;20100;-81
2022/04/20 00:10:34;;;;;;;5.30;3.47;;;8.20;99.90;;;;;;5050613;28;20037;-82
2022/04/20 00:12:59;;;;;;;5.85;3.42;;;8.20;99.90;;;;;;5035160;28;20037;-82
2022/04/20 00:15:25;;;;;;;6.22;3.35;;;8.10;99.90;;;;;;5027467;28;20041;-81
2022/04/20 00:17:51;;;;;;;5.20;3.50;;;8.10;99.90;;;;;;5038716;28;20052;-81
2022/04/20 00:20:17;;;;;;;4.72;3.38;;;8.00;99.90;;;;;;5037608;28;20410;-81
2022/04/20 00:22:43;;;;;;;5.50;3.75;;;8.00;99.90;;;;;;5038863;28;20430;-81
2022/04/20 00:25:09;;;;;;;4.97;3.53;;;8.00;99.90;;;;;;5032730;28;20105;-81
2022/04/20 00:27:36;;;;;;;5.57;3.35;;;7.90;99.90;;;;;;5037663;28;20069;-81
2022/04/20 00:30:06;;;;;;;5.93;3.20;;;7.90;99.90;;;;;;5038232;28;20045;-81
2022/04/20 00:32:31;;;;;;;5.50;3.10;;;7.80;99.90;;;;;;5031524;28;20052;-81
2022/04/20 00:34:57;;;;;;;5.70;3.83;;;7.80;99.90;;;;;;5038132;28;20037;-81
2022/04/20 00:37:23;;;;;;;6.45;3.30;;;7.80;99.90;;;;;;5038663;28;20040;-81
2022/04/20 00:39:49;;;;;;;6.13;3.40;;;7.80;99.90;;;;;;5034499;28;20037;-81
2022/04/20 00:42:14;;;;;;;4.72;3.30;;;7.80;99.90;;;;;;5029115;28;20049;-81
2022/04/20 00:44:41;;;;;;;6.43;3.90;;;7.70;99.90;;;;;;5036776;28;20037;-81
2022/04/20 00:47:07;;;;;;;4.80;3.28;;;7.70;99.90;;;;;;5035680;28;20034;-80
2022/04/20 00:49:34;;;;;;;6.32;3.65;;;7.70;99.90;;;;;;5038418;28;20042;-81
2022/04/20 00:52:02;;;;;;;5.60;3.65;;;7.60;99.90;;;;;;5030829;28;20068;-81
2022/04/20 00:54:28;;;;;;;4.38;3.10;;;7.60;99.90;;;;;;5021280;28;20053;-81
2022/04/20 00:56:53;;;;;;;6.15;3.55;;;7.60;99.90;;;;;;5037682;28;20064;-79
2022/04/20 00:59:22;;;;;;;5.43;3.60;;;7.60;99.90;;;;;;5021796;28;20060;-80
2022/04/20 01:01:48;;;;;;;6.47;3.35;;;7.60;99.90;;;;;;5036201;28;20056;-80
2022/04/20 01:04:14;;;;;;;5.13;3.53;;;7.60;99.90;;;;;;5031913;28;20038;-80
2022/04/20 01:06:39;;;;;;;5.05;3.67;;;7.60;99.90;;;;;;5039026;28;20111;-80
2022/04/20 01:09:05;;;;;;;5.88;3.67;;;7.50;99.90;;;;;;5036619;28;20045;-80
2022/04/20 01:11:31;;;;;;;5.38;3.47;;;7.50;99.90;;;;;;5039441;28;20100;-80
2022/04/20 01:13:57;;;;;;;7.38;3.75;;;7.50;99.90;;;;;;5027025;28;20112;-80
2022/04/20 01:16:22;;;;;;;7.00;3.85;;;7.50;99.90;;;;;;5038202;28;20041;-80
2022/04/20 01:18:51;;;;;;;6.22;3.67;;;7.40;99.90;;;;;;5030813;28;20045;-80
2022/04/20 01:21:17;;;;;;;5.20;3.90;;;7.40;99.90;;;;;;5029255;28;20440;-80
2022/04/20 01:23:42;;;;;;;8.02;3.97;;;7.40;99.90;;;;;;5037132;28;20076;-80
2022/04/20 01:26:09;;;;;;;5.32;3.58;;;7.40;99.90;;;;;;5028490;28;20068;-80
2022/04/20 01:28:44;;;;;;;5.50;3.17;;;7.40;99.90;;;;;;5030053;28;20476;-80
2022/04/20 01:31:16;;;;;;;5.55;3.50;;;7.30;99.90;;;;;;5033722;28;20025;-81
2022/04/20 01:33:44;;;;;;;6.68;3.70;;;7.30;99.90;;;;;;5029756;28;20025;-80
2022/04/20 01:36:10;;;;;;;7.13;3.97;;;7.30;99.90;;;;;;5046583;28;20044;-79
2022/04/20 01:38:39;;;;;;;6.15;3.78;;;7.30;99.90;;;;;;5040644;28;20128;-80
2022/04/20 01:41:05;;;;;;;7.40;3.95;;;7.20;99.90;;;;;;5035129;28;20045;-79
2022/04/20 01:43:31;;;;;;;6.38;3.38;;;7.10;99.90;;;;;;5038415;28;20407;-80
2022/04/20 01:45:57;;;;;;;6.60;4.15;;;7.00;99.90;;;;;;5034466;28;20047;-80
2022/04/20 01:48:22;;;;;;;5.43;3.67;;;7.00;99.90;;;;;;5039289;28;20128;-80
2022/04/20 01:53:43;;;;;;;5.55;3.50;;;6.70;99.90;;;;;;5044871;28;20052;-79
2022/04/20 01:56:08;;;;;;;4.85;3.78;;;6.70;99.90;;;;;;5034221;28;20045;-80
2022/04/20 01:58:37;;;;;;;5.22;3.80;;;6.60;99.90;;;;;;5039859;28;20038;-79
2022/04/20 02:02:34;;;;;;;7.65;3.70;;;6.60;99.90;;;;;;5031576;28;20432;-80
2022/04/20 02:03:48;;;;;;;7.30;3.90;;;6.50;99.90;;;;;;5037689;28;20053;-80
2022/04/20 02:06:14;;;;;;;4.80;3.83;;;6.50;99.90;;;;;;5038839;28;20045;-80
2022/04/20 02:08:40;;;;;;;6.38;3.70;;;6.60;99.90;;;;;;5038151;28;20046;-80
2022/04/20 02:11:06;;;;;;;6.90;4.20;;;6.50;99.90;;;;;;5031872;28;20026;-79
2022/04/20 02:13:32;;;;;;;7.72;4.15;;;6.50;99.90;;;;;;5030425;28;20048;-79
2022/04/20 02:15:58;;;;;;;5.97;3.92;;;6.40;99.90;;;;;;5037685;28;20168;-79
2022/04/20 02:18:24;;;;;;;5.75;4.00;;;6.40;99.90;;;;;;5021352;28;20042;-80
2022/04/20 02:20:49;;;;;;;7.70;3.67;;;6.40;99.90;;;;;;5033681;28;20050;-79
2022/04/20 02:23:15;;;;;;;6.63;3.95;;;6.30;99.90;;;;;;5020640;28;20052;-79
2022/04/20 02:25:41;;;;;;;5.75;3.92;;;6.30;99.90;;;;;;5035662;28;20044;-79
2022/04/20 02:28:06;;;;;;;6.72;4.18;;;6.30;99.90;;;;;;5036052;28;20037;-79
2022/04/20 02:30:32;;;;;;;7.65;4.20;;;6.30;99.90;;;;;;5035920;28;20049;-80
2022/04/20 02:32:57;;;;;;;6.13;4.20;;;6.20;99.90;;;;;;5034485;28;20091;-79
2022/04/20 02:35:23;;;;;;;8.00;4.47;;;6.10;99.90;;;;;;5032057;28;20390;-79
2022/04/20 02:37:48;;;;;;;5.32;4.00;;;6.10;99.90;;;;;;5036115;28;20115;-79
2022/04/20 02:40:14;;;;;;;7.18;4.32;;;6.10;99.90;;;;;;5035113;28;20083;-79
2022/04/20 02:42:39;;;;;;;8.40;4.22;;;6.10;99.90;;;;;;5017840;28;20062;-79
2022/04/20 02:45:06;;;;;;;5.20;3.78;;;6.20;99.90;;;;;;5028068;28;20051;-79
2022/04/20 02:47:31;;;;;;;5.32;3.83;;;6.10;99.90;;;;;;5034420;28;20084;-79
2022/04/20 02:49:57;;;;;;;7.75;3.97;;;6.10;99.90;;;;;;5016688;28;20042;-79
2022/04/20 02:52:22;;;;;;;6.32;4.28;;;6.10;99.90;;;;;;5020053;28;20046;-79
2022/04/20 02:54:48;;;;;;;5.68;4.03;;;6.10;99.90;;;;;;5027039;28;20033;-78
2022/04/20 02:57:13;;;;;;;7.05;4.22;;;6.10;99.90;;;;;;5033258;28;20052;-79
2022/04/20 02:59:39;;;;;;;6.22;4.25;;;6.10;99.90;;;;;;5033320;28;20061;-80
2022/04/20 03:02:05;;;;;;;6.30;4.13;;;6.10;99.90;;;;;;5037568;28;20038;-79
2022/04/20 03:04:30;;;;;;;6.55;4.40;;;6.10;99.90;;;;;;5040885;28;20075;-79
2022/04/20 03:06:56;;;;;;;5.95;4.00;;;6.10;99.90;;;;;;5039724;28;20072;-79
2022/04/20 03:09:21;;;;;;;7.25;4.60;;;6.10;99.90;;;;;;5039961;28;20045;-79
2022/04/20 03:11:47;;;;;;;5.65;4.15;;;6.20;99.90;;;;;;5032748;28;20038;-79
2022/04/20 03:14:13;;;;;;;5.65;3.90;;;6.10;99.90;;;;;;5031983;28;20037;-78
2022/04/20 03:16:38;;;;;;;9.60;4.13;;;6.10;99.90;;;;;;5034463;28;20045;-79
2022/04/20 03:19:04;;;;;;;11.10;4.90;;;6.00;99.90;;;;;;5033162;28;20525;-80
2022/04/20 03:21:30;;;;;;;6.28;4.20;;;6.10;99.90;;;;;;5036148;28;20176;-79
2022/04/20 03:23:55;;;;;;;6.85;4.43;;;6.00;99.90;;;;;;5030590;28;20124;-79
2022/04/20 03:26:21;;;;;;;5.72;4.18;;;6.00;99.90;;;;;;5034340;28;20430;-79
2022/04/20 03:28:46;;;;;;;7.10;4.10;;;6.00;99.90;;;;;;5025926;28;20048;-79
2022/04/20 03:31:12;;;;;;;7.05;4.25;;;5.90;99.90;;;;;;5032339;28;20132;-79
2022/04/20 03:33:37;;;;;;;6.10;4.35;;;5.80;99.90;;;;;;5038252;28;20420;-79
2022/04/20 03:36:06;;;;;;;6.78;4.13;;;5.80;99.90;;;;;;5036163;28;20080;-80
2022/04/20 03:38:31;;;;;;;8.68;4.53;;;5.70;99.90;;;;;;5038021;28;20407;-79
2022/04/20 03:40:57;;;;;;;5.53;4.03;;;5.70;99.90;;;;;;5027379;28;20068;-79
2022/04/20 03:43:23;;;;;;;5.95;4.30;;;5.60;99.90;;;;;;5039195;28;20116;-79
2022/04/20 03:45:50;;;;;;;6.07;4.28;;;5.60;99.90;;;;;;5030867;28;20442;-79
2022/04/20 03:48:16;;;;;;;7.50;4.20;;;5.50;99.90;;;;;;5040004;28;20041;-80
2022/04/20 03:50:42;;;;;;;5.95;4.05;;;5.50;99.90;;;;;;5040563;28;20060;-80
2022/04/20 03:53:07;;;;;;;9.98;4.60;;;5.50;99.90;;;;;;5024193;28;20046;-80
2022/04/20 03:55:33;;;;;;;6.72;4.70;;;5.50;99.90;;;;;;5040367;28;20043;-80
2022/04/20 03:57:59;;;;;;;7.13;4.45;;;5.50;99.90;;;;;;5040802;28;20053;-80
2022/04/20 04:00:25;;;;;;;5.43;4.20;;;5.50;99.90;;;;;;5039479;28;20038;-79
2022/04/20 04:02:51;;;;;;;5.07;3.83;;;5.50;99.90;;;;;;5039149;28;20056;-79
2022/04/20 04:05:17;;;;;;;8.80;4.10;;;5.50;99.90;;;;;;5036159;28;20045;-80
2022/04/20 04:07:43;;;;;;;9.32;4.50;;;5.50;99.90;;;;;;5036860;28;20038;-80
2022/04/20 04:10:09;;;;;;;5.78;4.28;;;5.50;99.90;;;;;;5034828;28;20124;-79
2022/04/20 04:12:34;;;;;;;7.18;4.68;;;5.50;99.90;;;;;;5039492;28;20048;-79
2022/04/20 04:15:00;;;;;;;8.57;5.07;;;5.50;99.90;;;;;;5038849;28;20487;-80
2022/04/20 04:17:26;;;;;;;7.22;4.63;;;5.50;99.90;;;;;;5038679;28;20033;-81
2022/04/20 04:19:51;;;;;;;6.60;4.32;;;5.50;99.90;;;;;;5039008;28;20380;-80
2022/04/20 04:22:17;;;;;;;6.30;4.72;;;5.60;99.90;;;;;;5039510;28;20072;-80
2022/04/20 04:24:42;;;;;;;6.82;4.43;;;5.60;99.90;;;;;;5024170;28;20407;-80
2022/04/20 04:27:09;;;;;;;6.18;4.70;;;5.60;99.90;;;;;;5037716;28;20033;-80
2022/04/20 04:29:36;;;;;;;6.38;4.60;;;5.60;99.90;;;;;;5032579;28;20038;-80
2022/04/20 04:32:02;;;;;;;9.13;4.80;;;5.60;99.90;;;;;;5037615;28;20034;-80
2022/04/20 04:34:29;;;;;;;6.63;5.13;;;5.60;99.90;;;;;;5041794;28;20041;-79
2022/04/20 04:36:55;;;;;;;7.03;4.75;;;5.60;99.90;;;;;;5033875;28;20052;-79
2022/04/20 04:39:21;;;;;;;6.93;4.50;;;5.70;99.90;;;;;;5041578;28;20084;-80
2022/04/20 04:41:48;;;;;;;11.90;4.88;;;5.70;99.90;;;;;;5033602;28;20124;-80
2022/04/20 04:44:20;;;;;;;6.90;4.43;;;5.70;99.90;;;;;;5025178;28;20037;-80
2022/04/20 04:49:31;;;;;;;7.63;4.75;;;5.70;99.90;;;;;;5036870;28;20076;-80
2022/04/20 04:51:58;;;;;;;6.03;4.60;;;5.80;99.90;;;;;;5021923;28;20044;-80
2022/04/20 04:54:24;;;;;;;6.90;4.30;;;5.80;99.90;;;;;;5029309;28;20057;-80
2022/04/20 04:56:49;;;;;;;8.57;4.82;;;5.90;99.90;;;;;;5040815;28;20068;-80
2022/04/20 04:59:16;;;;;;;6.85;4.65;;;5.90;99.90;;;;;;5040319;28;20057;-80
2022/04/20 05:01:42;;;;;;;6.20;4.70;;;5.90;99.90;;;;;;5039490;28;20156;-79
2022/04/20 05:04:07;;;;;;;6.72;5.20;;;5.90;99.90;;;;;;5038598;28;20065;-80
2022/04/20 05:06:33;;;;;;;5.78;4.50;;;6.00;99.90;;;;;;5037875;28;20120;-80
2022/04/20 05:08:58;;;;;;;6.53;4.38;;;6.00;99.90;;;;;;5039226;28;20080;-80
2022/04/20 05:11:24;;;;;;;6.15;4.57;;;6.10;99.90;;;;;;5039336;28;20068;-79
2022/04/20 05:13:49;;;;;;;6.05;4.72;;;6.20;99.90;;;;;;5021979;28;20041;-80
2022/04/20 05:16:15;;;;;;;6.63;4.50;;;6.20;99.90;;;;;;5039091;28;20033;-80
2022/04/20 05:18:41;;;;;;;6.05;4.60;;;6.30;99.90;;;;;;5023642;28;20495;-80
2022/04/20 05:21:06;;;;;;;7.20;4.45;;;6.40;99.90;;;;;;5038927;28;20068;-80
2022/04/20 05:23:32;;;;;;;5.65;4.53;;;6.40;99.90;;;;;;5037529;28;20052;-80
2022/04/20 05:25:57;;;;;;;7.32;4.40;;;6.50;99.90;;;;;;5027507;28;20042;-80
2022/04/20 05:28:23;;;;;;;6.75;4.40;;;6.60;99.90;;;;;;5034956;28;20404;-80
2022/04/20 05:30:49;;;;;;;7.50;4.72;;;6.70;99.90;;;;;;5034421;28;20037;-80
2022/04/20 05:33:14;;;;;;;6.47;4.85;;;6.80;99.90;;;;;;5032329;28;20425;-80
2022/04/20 05:35:40;;;;;;;7.35;4.70;;;6.80;99.90;;;;;;5029041;28;20053;-80
2022/04/20 05:43:34;;;;;;;6.03;4.50;;;7.10;99.90;;;;;;5033513;28;20040;-80
2022/04/20 05:45:59;;;;;;;6.32;4.63;;;7.20;99.90;;;;;;5027685;28;20045;-80
2022/04/20 05:48:25;;;;;;;7.38;4.50;;;7.30;99.90;;;;;;5031611;28;20037;-80
2022/04/20 05:50:51;;;;;;;6.20;4.53;;;7.40;99.90;;;;;;5037208;28;20043;-80
2022/04/20 05:53:16;;;;;;;7.88;4.82;;;7.40;99.90;;;;;;5036296;28;20097;-80
2022/04/20 05:55:42;;;;;;;8.43;4.70;;;7.50;99.90;;;;;;5036755;28;20037;-80
2022/04/20 05:58:07;;;;;;;9.13;4.63;;;7.60;99.90;;;;;;5036739;28;20049;-79
2022/04/20 06:00:33;;;;;;;8.23;4.95;;;7.70;99.90;;;;;;5036378;28;20380;-81
2022/04/20 06:02:59;;;;;;;7.13;4.82;;;7.80;99.90;;;;;;5056086;28;20403;-80
2022/04/20 06:05:24;;;;;;;7.03;4.60;;;7.90;99.90;;;;;;5035662;28;20038;-79
2022/04/20 06:07:50;;;;;;;6.85;4.80;;;7.90;99.90;;;;;;5039192;28;20052;-79
2022/04/20 06:10:15;;;;;;;9.32;5.35;;;8.00;99.90;;;;;;5039089;28;20523;-80
2022/04/20 06:12:41;;;;;;;6.35;4.78;;;8.10;99.90;;;;;;5039162;28;20101;-79
2022/04/20 06:15:07;;;;;;;6.82;4.68;;;8.10;99.90;;;;;;5036011;28;20091;-80
2022/04/20 06:17:33;;;;;;;7.80;4.93;;;8.30;99.90;;;;;;5033581;28;20453;-79
2022/04/20 06:19:59;;;;;;;8.50;4.90;;;8.30;99.90;;;;;;5033386;28;20032;-79
2022/04/20 06:22:25;;;;;;;9.32;4.50;;;8.30;99.90;;;;;;5032730;28;20112;-80
2022/04/20 06:24:50;;;;;;;7.93;4.93;;;8.40;99.90;;;;;;5028994;28;20052;-79
2022/04/20 06:27:16;;;;;;;5.63;4.32;;;8.50;99.90;;;;;;5030370;28;20404;-80
2022/04/20 06:29:42;;;;;;;6.45;4.65;;;8.60;99.90;;;;;;5028440;28;20041;-80
2022/04/20 06:32:08;;;;;;;7.45;5.20;;;8.60;99.90;;;;;;5027878;28;20033;-80
2022/04/20 06:34:33;;;;;;;7.57;5.18;;;8.70;99.90;;;;;;5016302;28;20132;-80
2022/04/20 06:37:00;;;;;;;7.07;4.70;;;8.80;99.90;;;;;;5034987;28;20404;-80
2022/04/20 06:39:26;;;;;;;7.85;4.90;;;8.90;99.90;;;;;;5029121;28;20045;-79
2022/04/20 06:41:51;;;;;;;9.43;5.00;;;9.00;99.90;;;;;;5029513;28;20470;-80
2022/04/20 06:44:18;;;;;;;7.63;5.00;;;9.00;99.90;;;;;;5029588;28;20083;-80
2022/04/20 06:46:43;;;;;;;8.30;4.93;;;9.10;99.90;;;;;;5028714;28;20484;-80
2022/04/20 06:49:09;;;;;;;7.05;4.93;;;9.20;99.90;;;;;;5025732;28;20038;-79
2022/04/20 06:59:47;;;;;;;;;;;9.60;99.90;;;;;;5030294;28;20045;-80
2022/04/20 07:02:13;;;;;;;8.13;4.72;;;9.80;99.90;;;;;;5027941;28;19920;-80
2022/04/20 07:04:38;;;;;;;5.57;4.22;;;9.90;99.90;;;;;;5030570;28;20037;-79
2022/04/20 07:07:04;;;;;;;8.45;4.90;;;10.00;99.90;;;;;;5031164;28;20095;-79
2022/04/20 07:09:29;;;;;;;9.13;5.18;;;10.10;99.90;;;;;;5047498;28;20064;-80
2022/04/20 07:11:55;;;;;;;5.75;4.45;;;10.20;99.90;;;;;;5013200;28;20033;-80
2022/04/20 07:14:20;;;;;;;5.85;4.47;;;10.20;99.90;;;;;;5030653;28;20045;-79
2022/04/20 07:16:46;;;;;;;6.28;4.07;;;10.40;99.90;;;;;;5030414;28;20036;-79
2022/04/20 07:19:11;;;;;;;6.60;4.40;;;10.40;99.90;;;;;;5036241;28;20041;-80
2022/04/20 07:21:37;;;;;;;6.45;3.90;;;10.50;99.90;;;;;;5027869;28;20042;-79
2022/04/20 07:24:03;;;;;;;12.10;4.00;;;10.60;99.90;;;;;;5035371;28;20352;-80
2022/04/20 07:26:28;;;;;;;7.53;4.13;;;10.60;99.90;;;;;;5037428;28;20037;-81
2022/04/20 07:28:55;;;;;;;8.57;3.95;;;10.70;99.90;;;;;;5034916;28;20076;-80
2022/04/20 07:31:20;;;;;;;6.45;3.40;;;10.90;99.90;;;;;;5041844;28;20033;-79
2022/04/20 07:33:46;;;;;;;4.85;3.60;;;10.90;99.90;;;;;;5042316;28;20174;-80
2022/04/20 07:36:11;;;;;;;5.32;3.63;;;11.00;99.90;;;;;;5038434;28;20033;-80
2022/04/20 07:38:38;;;;;;;4.85;3.83;;;11.10;99.90;;;;;;5037329;28;20045;-80
2022/04/20 07:41:04;;;;;;;5.85;3.40;;;11.10;99.90;;;;;;5038954;28;20073;-79
2022/04/20 07:43:29;;;;;;;7.20;3.47;;;11.30;99.90;;;;;;5034901;28;20123;-80
2022/04/20 07:45:55;;;;;;;6.40;3.58;;;11.40;99.90;;;;;;5036658;28;20539;-80
2022/04/20 07:48:21;;;;;;;7.20;3.60;;;11.40;99.90;;;;;;5037750;28;20039;-80
2022/04/20 07:50:46;;;;;;;5.97;3.55;;;11.50;99.90;;;;;;5038734;28;20041;-81
2022/04/20 07:53:12;;;;;;;4.38;3.40;;;11.60;99.90;;;;;;5040043;28;20048;-80
2022/04/20 07:55:38;;;;;;;7.35;3.58;;;11.70;99.90;;;;;;5041626;28;20045;-80
2022/04/20 07:58:04;;;;;;;5.10;3.42;;;11.80;99.90;;;;;;5040921;28;20045;-80
2022/04/20 08:00:30;;;;;;;4.00;3.28;;;11.90;99.90;;;;;;5057441;28;20038;-81
2022/04/20 08:03:22;;;;;;;7.60;3.30;;;12.00;99.90;;;;;;5038714;28;20033;-81
2022/04/20 08:05:54;;;;;;;4.00;3.03;;;12.10;99.90;;;;;;5033456;28;20062;-80
2022/04/20 08:08:24;;;;;;;3.65;3.00;;;12.20;99.90;;;;;;5036979;28;20069;-80
2022/04/20 08:10:50;;;;;;;5.28;3.40;;;12.30;99.90;;;;;;5035886;28;20326;-81
2022/04/20 08:16:00;;;;;;;5.25;2.90;;;12.50;99.90;;;;;;5037657;28;20507;-80
2022/04/20 08:18:26;;;;;;;5.45;2.90;;;12.60;99.90;;;;;;5036972;28;20054;-81
2022/04/20 08:20:52;;;;;;;6.25;3.10;;;12.60;99.90;;;;;;5036400;28;20049;-81
2022/04/20 08:23:18;;;;;;;6.25;3.00;;;12.70;99.90;;;;;;5036159;28;20042;-81
2022/04/20 08:25:43;;;;;;;5.30;2.60;;;12.80;99.90;;;;;;5035510;28;20578;-80
2022/04/20 08:28:10;;;;;;;4.18;2.90;;;12.80;99.90;;;;;;5035658;28;20456;-81
2022/04/20 08:30:37;;;;;;;5.45;3.10;;;12.90;99.90;;;;;;5035632;28;20048;-82
2022/04/20 08:33:08;;;;;;;6.53;2.80;;;12.90;99.90;;;;;;5036239;28;20415;-81
2022/04/20 08:35:34;;;;;;;5.07;2.50;;;13.00;99.90;;;;;;5034186;28;20053;-81
2022/04/20 08:38:00;;;;;;;4.47;2.90;;;13.10;99.90;;;;;;5034749;28;20056;-82
2022/04/20 08:40:27;;;;;;;4.03;2.58;;;13.20;99.70;;;;;;5033866;28;20500;-82
2022/04/20 08:42:54;;;;;;;3.95;2.80;;;13.30;99.50;;;;;;5033831;28;20041;-82
2022/04/20 08:45:20;;;;;;;3.53;2.40;;;13.40;99.50;;;;;;5035381;28;20132;-81
2022/04/20 08:47:49;;;;;;;4.82;2.53;;;13.60;99.50;;;;;;5034274;28;20081;-82
2022/04/20 08:50:15;;;;;;;4.25;2.25;;;13.70;98.30;;;;;;5034355;28;20115;-82
2022/04/20 08:52:46;;;;;;;3.35;2.30;;;13.70;97.70;;;;;;5034379;28;20045;-82
2022/04/20 08:55:16;;;;;;;5.13;2.13;;;13.70;97.00;;;;;;5035984;28;20037;-81
2022/04/20 08:57:46;;;;;;;3.28;2.20;;;13.80;96.40;;;;;;5036288;28;20099;-81
2022/04/20 09:00:19;;;;;;;4.15;2.33;;;13.90;95.50;;;;;;5033354;28;20530;-82
2022/04/20 09:02:46;;;;;;;2.97;2.20;;;13.90;94.80;;;;;;5034275;28;20128;-82
2022/04/20 09:05:12;;;;;;;3.22;1.95;;;14.00;94.90;;;;;;5026254;28;20079;-80
2022/04/20 09:07:38;;;;;;;3.45;2.20;;;14.10;94.00;;;;;;5023323;28;20116;-81
2022/04/20 09:10:04;;;;;;;3.80;2.35;;;14.20;94.20;;;;;;5016336;28;20034;-80
2022/04/20 09:12:30;;;;;;;4.07;2.22;;;14.20;94.00;;;;;;5031108;28;20043;-81
2022/04/20 09:15:00;;;;;;;4.68;2.13;;;14.20;93.60;;;;;;5036578;28;20649;-81
2022/04/20 09:17:26;;;;;;;15.65;2.92;;;14.30;93.60;;;;;;5033658;28;20041;-80
2022/04/20 09:19:55;;;;;;;3.13;2.40;;;14.40;93.70;;;;;;5030280;28;20630;-81
2022/04/20 09:22:25;;;;;;;3.75;2.10;;;14.40;93.10;;;;;;5035606;28;20052;-80
2022/04/20 09:25:08;;;;;;;2.55;1.98;;;14.40;92.50;;;;;;5035060;28;20053;-80
2022/04/20 09:27:41;;;;;;;5.07;2.28;;;14.30;91.50;;;;;;5042819;28;20096;-80
2022/04/20 09:30:12;;;;;;;3.25;2.17;;;14.50;91.10;;;;;;5047846;28;20064;-79
2022/04/20 09:32:43;;;;;;;3.92;2.10;;;14.50;91.90;;;;;;5029446;28;20116;-80
2022/04/20 09:35:12;;;;;;;4.80;2.30;;;14.60;90.80;;;;;;5014577;28;20562;-80
2022/04/20 09:37:39;;;;;;;3.80;2.00;;;14.60;91.20;;;;;;5029848;28;20044;-80
2022/04/20 09:40:06;;;;;;;5.47;1.98;;;14.70;90.90;;;;;;5029749;28;20574;-80
2022/04/20 09:42:34;;;;;;;2.75;1.90;;;14.80;90.80;;;;;;5030944;28;20379;-79
2022/04/20 09:45:02;;;;;;;4.35;1.95;;;14.90;90.40;;;;;;5029820;28;20038;-79
2022/04/20 09:50:23;;;;;;;3.08;1.90;;;15.00;87.50;;;;;;5031621;28;20124;-79
2022/04/20 09:52:50;;;;;;;3.13;1.90;;;15.00;86.70;;;;;;5026433;28;20042;-79
2022/04/20 09:55:37;;;;;;;4.47;1.80;;;15.10;86.70;;;;;;5032474;28;20545;-78
2022/04/20 09:58:13;;;;;;;3.03;2.10;;;15.20;86.10;;;;;;5032790;28;20116;-79
2022/04/20 10:00:45;;;;;;;3.13;1.50;;;15.40;86.70;;;;;;5032541;28;20041;-78
2022/04/20 10:03:21;;;;;;;2.28;1.40;;;15.40;85.20;;;;;;5031366;28;20095;-78
2022/04/20 10:05:47;;;;;;;2.17;1.23;;;15.50;84.70;;;;;;5026629;28;20052;-77
2022/04/20 10:08:12;;;;;;;2.60;1.55;;;15.50;81.60;;;;;;5030665;28;20041;-78
2022/04/20 10:10:38;;;;;;;5.68;1.50;;;15.50;81.60;;;;;;5031831;28;20034;-78
2022/04/20 10:13:04;;;;;;;3.15;2.08;;;15.50;81.60;;;;;;5031358;28;20033;-78
2022/04/20 10:18:20;;;;;;;4.50;1.70;;;15.70;81.60;;;;;;5031889;28;20537;-79
2022/04/20 10:20:50;;;;;;;4.13;1.80;;;15.80;81.00;;;;;;5015385;28;20037;-78
2022/04/20 10:23:19;;;;;;;3.03;1.92;;;16.00;82.70;;;;;;5031666;28;20041;-79
2022/04/20 10:25:46;;;;;;;3.85;1.90;;;16.10;82.40;;;;;;5031298;28;20171;-78
2022/04/20 10:28:24;;;;;;;6.22;2.15;;;16.20;82.70;;;;;;5017292;28;20048;-79
2022/04/20 10:31:14;;;;;;;3.92;1.88;;;16.30;81.20;;;;;;5032349;28;20041;-79
2022/04/20 10:33:42;;;;;;;3.45;1.80;;;16.40;83.00;;;;;;5031932;28;20089;-78
2022/04/20 10:36:12;;;;;;;3.20;1.88;;;16.50;82.70;;;;;;5030562;28;20041;-78
2022/04/20 10:38:38;;;;;;;2.75;1.80;;;16.60;81.30;;;;;;5030221;28;20038;-79
2022/04/20 10:41:19;;;;;;;3.53;1.90;;;16.50;81.10;;;;;;5030552;28;20037;-78
2022/04/20 10:43:45;;;;;;;2.97;2.00;;;16.50;79.60;;;;;;5030883;28;20051;-78
2022/04/20 10:46:17;;;;;;;4.75;2.00;;;16.50;80.40;;;;;;5031066;28;20041;-78
2022/04/20 10:48:58;;;;;;;3.03;2.30;;;16.50;78.30;;;;;;5029624;28;20052;-77
2022/04/20 10:51:30;;;;;;;3.13;1.95;;;16.50;79.00;;;;;;5029939;28;20033;-76
2022/04/20 10:54:22;;;;;;;3.78;1.73;;;16.60;79.60;;;;;;5034155;28;20741;-77
2022/04/20 10:56:49;;;;;;;2.85;1.77;;;16.80;78.60;;;;;;5035289;28;20044;-78
2022/04/20 10:59:15;;;;;;;2.33;1.33;;;16.90;79.30;;;;;;5034860;28;20040;-77
2022/04/20 11:01:58;;;;;;;2.33;1.60;;;17.00;78.60;;;;;;5033910;28;20473;-78
2022/04/20 11:04:42;;;;;;;2.47;1.70;;;17.00;77.40;;;;;;5033577;28;20048;-78
2022/04/20 11:07:07;;;;;;;3.10;1.60;;;17.10;75.10;;;;;;5033724;28;20049;-77
2022/04/20 11:09:45;;;;;;;2.80;1.33;;;17.10;76.50;;;;;;5031620;28;20136;-78
2022/04/20 11:21:07;;;;;;;2.50;1.60;;;17.60;72.20;;;;;;5026050;28;20052;-77
2022/04/20 11:23:58;;;;;;;3.58;1.40;;;17.60;71.70;;;;;;5014275;28;20042;-78
2022/04/20 11:26:25;;;;;;;2.75;1.60;;;17.80;73.80;;;;;;5031160;28;20131;-77
2022/04/20 11:28:55;;;;;;;2.33;1.50;;;18.00;73.70;;;;;;5029896;28;20042;-78
2022/04/20 11:31:22;;;;;;;1.50;1.15;;;18.10;72.00;;;;;;5029593;28;20030;-78
2022/04/20 11:33:49;;;;;;;4.28;1.60;;;18.20;72.80;;;;;;5032978;28;20043;-78
2022/04/20 11:36:16;;;;;;;2.17;1.40;;;18.20;69.90;;;;;;5033392;28;20068;-77
2022/04/20 11:38:44;;;;;;;4.18;1.30;;;18.30;70.50;;;;;;5033112;28;20498;-78
2022/04/20 11:41:11;;;;;;;1.70;1.10;;;18.40;70.80;;;;;;5030266;28;20048;-77
2022/04/20 11:43:38;;;;;;;2.88;1.10;;;18.40;70.90;;;;;;5032738;28;20128;-77
2022/04/20 11:46:04;;;;;;;1.92;1.30;;;18.30;69.90;;;;;;5032276;28;20037;-77
2022/04/20 11:48:32;;;;;;;3.50;1.35;;;18.30;69.80;;;;;;5032898;28;20095;-77
2022/04/20 11:51:00;;;;;;;2.83;1.30;;;18.50;70.70;;;;;;5034545;28;20048;-78
2022/04/20 11:53:41;;;;;;;4.22;1.20;;;18.60;71.00;;;;;;5035087;28;20096;-78
2022/04/20 11:56:08;;;;;;;3.20;1.23;;;18.80;70.80;;;;;;5031978;28;20069;-77
2022/04/20 11:58:34;;;;;;;2.15;1.20;;;18.90;69.40;;;;;;5012632;28;20069;-77
2022/04/20 12:01:07;;;;;;;1.83;1.20;;;18.80;69.20;;;;;;5043960;28;20049;-79
2022/04/20 12:03:40;;;;;;;1.92;1.20;;;18.80;68.60;;;;;;5031821;28;20589;-78
2022/04/20 12:06:08;;;;;;;3.00;1.00;;;18.90;68.30;;;;;;5032776;28;20495;-79
2022/04/20 12:08:35;;;;;;;2.30;1.20;;;19.00;68.30;;;;;;5032848;28;20041;-79
2022/04/20 12:11:08;;;;;;;2.53;1.10;;;19.20;69.00;;;;;;5032463;28;20495;-78
2022/04/20 12:13:35;;;;;;;1.83;1.10;;;19.40;68.20;;;;;;5036046;28;20495;-79
2022/04/20 12:16:11;;;;;;;2.40;1.10;;;19.50;68.70;;;;;;5032167;28;20093;-79
2022/04/20 12:18:44;;;;;;;1.17;1.05;;;19.50;68.00;;;;;;5031314;28;20463;-78
2022/04/20 12:21:35;;;;;;;3.58;1.40;;;19.60;68.20;;;;;;5020265;28;20044;-80
2022/04/20 12:24:02;;;;;;;2.08;1.30;;;19.40;67.40;;;;;;5029062;28;20076;-80
2022/04/20 12:26:29;;;;;;;2.67;1.15;;;19.30;66.80;;;;;;5033153;28;20090;-80
2022/04/20 12:29:03;;;;;;;2.70;1.10;;;19.40;67.30;;;;;;5028625;28;20504;-79
2022/04/20 12:31:29;;;;;;;1.33;1.08;;;19.50;66.90;;;;;;5037131;28;20041;-80
2022/04/20 12:34:03;;;;;;;2.22;1.60;;;19.60;67.70;;;;;;5033313;28;20391;-81
2022/04/20 12:36:31;;;;;;;1.30;1.00;;;19.70;67.00;;;;;;5033864;28;20029;-80
2022/04/20 12:38:57;;;;;;;3.05;1.20;;;19.80;67.00;;;;;;5032610;28;20059;-80
2022/04/20 12:41:47;;;;;;;1.70;1.33;;;19.80;67.10;;;;;;5035769;28;20083;-81
2022/04/20 12:44:34;;;;;;;2.67;1.40;;;19.90;67.30;;;;;;5028698;28;20406;-81
2022/04/20 12:47:20;;;;;;;5.72;1.40;;;19.90;65.30;;;;;;5019769;28;20041;-79
2022/04/20 12:50:00;;;;;;;1.40;1.17;;;20.00;66.40;;;;;;5010958;28;20054;-79
2022/04/20 12:52:30;;;;;;;2.50;1.50;;;20.00;64.10;;;;;;5050148;28;20038;-79
2022/04/20 12:55:07;;;;;;;3.90;1.23;;;19.90;65.40;;;;;;5036675;28;20048;-80
2022/04/20 13:03:16;;;;;;;3.85;1.55;;;20.20;66.70;;;;;;5023202;28;20057;-80
2022/04/20 13:05:43;;;;;;;2.97;1.30;;;20.30;65.00;;;;;;5030330;28;20053;-79
2022/04/20 13:08:12;;;;;;;8.63;1.77;;;20.20;66.10;;;;;;5017145;28;20037;-80
2022/04/20 13:10:51;;;;;;;2.63;1.30;;;20.20;64.30;;;;;;5030035;28;20030;-81
2022/04/20 13:13:17;;;;;;;1.45;1.10;;;20.20;65.10;;;;;;5015536;28;20093;-80
2022/04/20 13:15:42;;;;;;;1.75;1.08;;;20.20;65.70;;;;;;5026768;28;20495;-79
2022/04/20 13:18:11;;;;;;;2.42;1.25;;;20.30;65.60;;;;;;5022286;28;20099;-80
2022/04/20 13:20:36;;;;;;;2.25;1.27;;;20.30;64.80;;;;;;5015152;28;20037;-80
2022/04/20 13:23:04;;;;;;;2.72;1.30;;;20.40;65.50;;;;;;5028465;28;20134;-79
2022/04/20 13:28:14;;;;;;;;;;;20.60;65.40;;;;;;5033503;28;20053;-79
2022/04/20 13:30:40;;;;;;;11.50;1.48;;;20.50;62.40;;;;;;5032188;28;19920;-79
2022/04/20 13:33:10;;;;;;;1.92;1.30;;;20.40;64.50;;;;;;5020642;28;20478;-80
2022/04/20 13:35:37;;;;;;;4.72;1.95;;;20.40;64.60;;;;;;5030917;28;20095;-79
2022/04/20 13:38:06;;;;;;;2.70;1.45;;;20.40;64.60;;;;;;5032573;28;20038;-79
2022/04/20 13:40:32;;;;;;;4.57;1.83;;;20.40;64.30;;;;;;5034338;28;20411;-80